This demonstration page uses our WeatherBlox Daily Observations layout. Learn more.

39.01783, -85.05884

Hourly Observations for August 4, 2019

Temp ( °F °C ) Dew Point ( °F °C ) Humidity (%) Winds ( mph kmh ) Pressure ( in mb ) Visibility ( mi km ) Precip ( " mm )
12:52 am 00:52 Mostly Clear 67 19.4 54 12.2 63 63 Calm 30 1016 10 16.09344 0 0
1:52 am 01:52 Partly Cloudy 68 20 55 12.8 63 63 Calm 30 1016 10 16.09344 0 0
2:52 am 02:52 Mostly Clear 67 19.4 56 13.3 68 68 N 5 7 30 1016 10 16.09344 0 0
3:52 am 03:52 Clear 67 19.4 58 14.4 73 73 Calm 29.97 1015 10 16.09344 0 0
4:52 am 04:52 Partly Cloudy 68 20 58 14.4 70 70 NNE 3 6 29.97 1015 10 16.09344 0 0
5:52 am 05:52 Partly Cloudy 66 18.9 58 14.4 75 75 NNE 3 6 30 1016 10 16.09344 0 0
6:52 am 06:52 Mostly Sunny 66 18.9 59 15 78 78 N 3 6 30 1016 10 16.09344 0 0
7:52 am 07:52 Partly Cloudy 64 17.8 60 15.6 87 87 Calm 30 1016 9 14.484096 0 0
8:52 am 08:52 Partly Cloudy 73 22.8 59 15 62 62 ENE 5 7 30 1016 10 16.09344 0 0
9:52 am 09:52 Partly Cloudy 78 25.6 59 15 52 52 Calm 30.03 1017 10 16.09344 0 0
10:52 am 10:52 Partly Cloudy 83 28.3 53 11.7 36 36 VRB 3 6 30.03 1017 10 16.09344 0 0
11:52 am 11:52 Partly Cloudy 85 29.4 55 12.8 36 36 VRB 3 6 30 1016 10 16.09344 0 0
12:52 pm 12:52 Partly Cloudy 87 30.6 52 11.1 30 30 NE 8 13 30 1016 10 16.09344 0 0
1:52 pm 13:52 Partly Cloudy 86 30 54 12.2 33 33 E 8 13 30 1016 10 16.09344 0 0
2:52 pm 14:52 Partly Cloudy 89 31.7 56 13.3 33 33 VRB 7 11 29.97 1015 10 16.09344 0 0
3:52 pm 15:52 Partly Cloudy 87 30.6 54 12.2 32 32 SSW 5 7 29.94 1014 10 16.09344 0 0
4:52 pm 16:52 Partly Cloudy 89 31.7 55 12.8 31 31 VRB 3 6 29.94 1014 10 16.09344 0 0
5:52 pm 17:52 Sunny 88 31.1 55 12.8 33 33 Calm 29.94 1014 10 16.09344 0 0
6:52 pm 18:52 Partly Cloudy 85 29.4 59 15 42 42 Calm 29.91 1013 10 16.09344 0 0
7:52 pm 19:52 Partly Cloudy 85 29.4 57 13.9 39 39 Calm 29.94 1014 10 16.09344 0 0
8:52 pm 20:52 Partly Cloudy 83 28.3 58 14.4 43 43 Calm 29.94 1014 10 16.09344 0 0
9:52 pm 21:52 Partly Cloudy 79 26.1 60 15.6 52 52 Calm 29.94 1014 10 16.09344 0 0
10:52 pm 22:52 Partly Cloudy 76 24.4 61 16.1 60 60 Calm 29.94 1014 10 16.09344 0 0
11:52 pm 23:52 Mostly Clear 72 22.2 62 16.7 71 71 Calm 29.94 1014 10 16.09344 0 0

Powered by AerisWeather